createdAt,value
2023-01-19T00:00:00.345Z,10.8
2023-01-19T00:10:00.331Z,7.7
2023-01-19T00:20:00.320Z,6.0
2023-01-19T00:30:00.441Z,9.3
2023-01-19T00:40:00.600Z,6.5
2023-01-19T00:50:00.637Z,6.1
2023-01-19T01:00:00.492Z,5.1
2023-01-19T01:10:00.608Z,3.2
2023-01-19T01:20:01.125Z,3.2
2023-01-19T01:30:00.625Z,2.7
2023-01-19T01:40:00.391Z,2.8
2023-01-19T01:50:00.505Z,3.1
2023-01-19T02:00:00.429Z,1.2
2023-01-19T02:10:00.396Z,2.2
2023-01-19T02:20:00.319Z,1.3
2023-01-19T02:30:00.323Z,1.2
2023-01-19T02:40:00.331Z,1.7
2023-01-19T02:50:00.345Z,4.4
2023-01-19T03:00:00.313Z,4.6
2023-01-19T03:10:00.346Z,2.1
2023-01-19T03:20:00.324Z,1.4
2023-01-19T03:30:00.338Z,0.4
2023-01-19T03:40:00.353Z,0.2
2023-01-19T03:50:00.344Z,0.6
2023-01-19T04:00:00.344Z,0.6
2023-01-19T04:10:00.346Z,0.3
2023-01-19T04:20:00.336Z,0.2
2023-01-19T04:30:00.342Z,0.6
2023-01-19T04:40:00.916Z,1.6
2023-01-19T04:50:00.372Z,1.1
2023-01-19T05:00:00.326Z,2.8
2023-01-19T05:10:00.825Z,9.8
2023-01-19T05:20:00.807Z,1.9
2023-01-19T05:30:01.132Z,4.4
2023-01-19T05:40:00.753Z,5.4
2023-01-19T05:50:00.523Z,10.2
2023-01-19T06:00:00.416Z,4.9
2023-01-19T06:10:00.491Z,3.2
2023-01-19T06:20:00.371Z,4.7
2023-01-19T06:30:00.317Z,4.1
2023-01-19T06:40:00.333Z,2.3
2023-01-19T06:50:00.314Z,1.9
2023-01-19T07:00:00.330Z,3.1
2023-01-19T07:10:00.351Z,3.9
2023-01-19T07:20:00.325Z,9.3
2023-01-19T07:30:00.333Z,3.4
2023-01-19T07:40:00.342Z,7.4
2023-01-19T07:50:00.351Z,9.7
2023-01-19T08:00:00.337Z,8.2
2023-01-19T08:10:00.327Z,10.0
2023-01-19T08:20:00.333Z,11.8
2023-01-19T08:30:00.330Z,12.3
2023-01-19T08:40:00.316Z,13.6
2023-01-19T08:50:00.309Z,14.8
2023-01-19T09:00:00.385Z,13.4
2023-01-19T09:10:00.297Z,12.1
2023-01-19T09:20:00.329Z,11.2
2023-01-19T09:30:00.478Z,13.7
2023-01-19T09:40:00.495Z,15.9
2023-01-19T09:50:00.456Z,17.6
2023-01-19T10:00:00.488Z,22.7
2023-01-19T10:10:00.552Z,14.7
2023-01-19T10:20:00.569Z,12.7
2023-01-19T10:30:00.624Z,9.8
2023-01-19T10:40:00.560Z,11.3
2023-01-19T10:50:00.530Z,8.6
2023-01-19T11:00:00.479Z,8.8
2023-01-19T11:10:00.342Z,22.9
2023-01-19T11:20:00.348Z,24.6
2023-01-19T11:30:00.347Z,17.3
2023-01-19T11:40:00.408Z,14.8
2023-01-19T11:50:00.324Z,15.7
2023-01-19T12:00:00.340Z,17.8
2023-01-19T12:10:00.461Z,19.7
2023-01-19T12:20:00.357Z,22.7
2023-01-19T12:30:00.336Z,25.1
2023-01-19T12:40:00.326Z,22.9
2023-01-19T12:50:00.323Z,23.0
2023-01-19T13:00:00.331Z,24.1
2023-01-19T13:10:00.326Z,24.7
2023-01-19T13:20:00.321Z,26.4
2023-01-19T13:30:00.790Z,30.0
2023-01-19T13:40:00.869Z,32.0
2023-01-19T13:50:00.838Z,32.2
2023-01-19T14:00:00.631Z,36.8
2023-01-19T14:10:00.669Z,35.2
2023-01-19T14:20:00.668Z,29.9
2023-01-19T14:30:00.497Z,27.9
2023-01-19T14:40:00.609Z,26.1
2023-01-19T14:50:00.484Z,29.1
2023-01-19T15:00:00.604Z,28.8
2023-01-19T15:10:00.345Z,28.5
2023-01-19T15:40:00.324Z,30.7
2023-01-19T15:50:00.361Z,36.4
2023-01-19T16:00:00.318Z,35.4
2023-01-19T16:10:00.374Z,38.8
2023-01-19T16:40:00.395Z,34.3
2023-01-19T16:50:00.350Z,38.9
2023-01-19T17:00:00.324Z,38.4
2023-01-19T17:10:00.321Z,36.2
2023-01-19T17:20:00.372Z,36.4
2023-01-19T17:30:00.507Z,35.0
2023-01-19T17:40:00.438Z,35.7
2023-01-19T17:50:00.421Z,33.7
2023-01-19T18:00:00.336Z,27.4
2023-01-19T18:10:01.245Z,27.4
2023-01-19T18:20:00.494Z,29.3
2023-01-19T18:30:00.540Z,25.7
2023-01-19T18:40:00.530Z,28.1
2023-01-19T18:50:00.568Z,26.0
2023-01-19T19:00:00.543Z,28.6
2023-01-19T19:10:00.517Z,30.2
2023-01-19T19:20:00.628Z,28.8
2023-01-19T19:30:00.860Z,28.4
2023-01-19T19:40:00.661Z,29.2
2023-01-19T19:50:00.646Z,31.1
2023-01-19T20:00:00.655Z,32.1
2023-01-19T20:10:00.648Z,32.3
2023-01-19T20:20:01.400Z,33.2
2023-01-19T20:30:00.603Z,31.6
2023-01-19T20:40:00.580Z,32.2
2023-01-19T20:50:00.545Z,31.8
2023-01-19T21:00:00.557Z,32.1
2023-01-19T21:10:00.520Z,32.4
2023-01-19T21:20:00.549Z,30.7
2023-01-19T21:30:00.535Z,32.8
2023-01-19T21:40:00.524Z,30.9
2023-01-19T21:50:00.530Z,29.6
2023-01-19T22:00:00.514Z,24.2
2023-01-19T22:10:00.526Z,25.2
2023-01-19T22:20:00.527Z,27.7
2023-01-19T22:30:00.531Z,23.2
2023-01-19T22:40:00.565Z,24.8
2023-01-19T22:50:00.518Z,25.1
2023-01-19T23:00:00.564Z,24.8
2023-01-19T23:10:00.513Z,30.2
2023-01-19T23:20:00.594Z,20.9
2023-01-19T23:30:00.504Z,29.6
2023-01-19T23:40:00.526Z,31.0
2023-01-19T23:50:00.530Z,27.5
